createdAt,value
2018-09-22T00:00:58.005Z,1012.01
2018-09-22T00:02:07.682Z,1012.09
2018-09-22T00:03:17.611Z,1012.05
2018-09-22T00:04:27.552Z,1012.03
2018-09-22T00:05:36.904Z,1012.07
2018-09-22T00:06:47.069Z,1012
2018-09-22T00:07:57.266Z,1012.04
2018-09-22T00:09:06.879Z,1012
2018-09-22T00:10:16.802Z,1012.06
2018-09-22T00:11:26.421Z,1012.03
2018-09-22T00:12:36.042Z,1012.02
2018-09-22T00:13:45.930Z,1012.13
2018-09-22T00:14:56.094Z,1012.11
2018-09-22T00:16:05.717Z,1012.15
2018-09-22T00:17:15.364Z,1012.12
2018-09-22T00:18:25.255Z,1012.14
2018-09-22T00:19:34.900Z,1012.17
2018-09-22T00:20:44.539Z,1012.2
2018-09-22T00:21:54.256Z,1012.2
2018-09-22T00:23:04.455Z,1012.24
2018-09-22T00:24:14.109Z,1012.28
2018-09-22T00:25:24.011Z,1012.22
2018-09-22T00:26:33.945Z,1012.24
2018-09-22T00:27:44.258Z,1012.28
2018-09-22T00:28:53.868Z,1012.22
2018-09-22T00:30:03.759Z,1012.27
2018-09-22T00:31:12.827Z,1012.35
2018-09-22T00:32:22.991Z,1012.32
2018-09-22T00:33:32.330Z,1012.35
2018-09-22T00:34:42.227Z,1012.35
2018-09-22T00:35:51.838Z,1012.42
2018-09-22T00:37:01.450Z,1012.43
2018-09-22T00:38:11.340Z,1012.42
2018-09-22T00:39:20.963Z,1012.42
2018-09-22T00:40:31.129Z,1012.43
2018-09-22T00:41:40.750Z,1012.54
2018-09-22T00:42:50.364Z,1012.52
2018-09-22T00:44:00.250Z,1012.57
2018-09-22T00:45:10.143Z,1012.53
2018-09-22T00:46:19.798Z,1012.58
2018-09-22T00:47:29.684Z,1012.66
2018-09-22T00:48:39.888Z,1012.52
2018-09-22T00:49:50.106Z,1012.59
2018-09-22T00:51:00.287Z,1012.62
2018-09-22T00:52:10.178Z,1012.59
2018-09-22T00:53:19.795Z,1012.58
2018-09-22T00:54:29.417Z,1012.62
2018-09-22T00:55:38.480Z,1012.6
2018-09-22T00:56:48.361Z,1012.67
2018-09-22T00:57:58.020Z,1012.74
2018-09-22T00:59:07.961Z,1012.69
2018-09-22T01:00:18.182Z,1012.7
2018-09-22T01:01:27.799Z,1012.77
2018-09-22T01:02:37.977Z,1012.75
2018-09-22T01:03:48.144Z,1012.74
2018-09-22T01:04:58.038Z,1012.77
2018-09-22T01:06:07.658Z,1012.76
2018-09-22T01:07:17.554Z,1012.76
2018-09-22T01:08:27.413Z,1012.74
2018-09-22T01:09:37.025Z,1012.83
2018-09-22T01:10:46.914Z,1012.76
2018-09-22T01:11:56.834Z,1012.91
2018-09-22T01:13:06.449Z,1012.89
2018-09-22T01:14:16.654Z,1012.89
2018-09-22T01:15:26.308Z,1012.9
2018-09-22T01:16:36.606Z,1012.9
2018-09-22T01:17:46.799Z,1012.91
2018-09-22T01:18:56.448Z,1013.01
2018-09-22T01:20:06.380Z,1012.89
2018-09-22T01:21:16.272Z,1012.91
2018-09-22T01:22:25.920Z,1012.93
2018-09-22T01:23:35.540Z,1012.98
2018-09-22T01:24:45.428Z,1012.99
2018-09-22T01:25:55.080Z,1013.01
2018-09-22T01:27:04.696Z,1012.96
2018-09-22T01:28:14.622Z,1013.05
2018-09-22T01:29:24.248Z,1013.1
2018-09-22T01:30:34.145Z,1013.13
2018-09-22T01:31:44.085Z,1013.13
2018-09-22T01:32:53.986Z,1013.15
2018-09-22T01:34:03.883Z,1013.15
2018-09-22T01:35:13.773Z,1013.23
2018-09-22T01:36:23.387Z,1013.25
2018-09-22T01:37:32.997Z,1013.35
2018-09-22T01:38:42.895Z,1013.29
2018-09-22T01:39:52.814Z,1013.31
2018-09-22T01:41:02.431Z,1013.41
2018-09-22T01:42:12.054Z,1013.39
2018-09-22T01:43:22.189Z,1013.49
2018-09-22T01:44:32.353Z,1013.42
2018-09-22T01:45:41.970Z,1013.45
2018-09-22T01:46:52.130Z,1013.53
2018-09-22T01:48:02.101Z,1013.51
2018-09-22T01:49:11.721Z,1013.55
2018-09-22T01:50:21.623Z,1013.54
2018-09-22T01:51:31.510Z,1013.62
2018-09-22T01:52:40.854Z,1013.6
2018-09-22T01:53:50.467Z,1013.6
2018-09-22T01:54:59.542Z,1013.65
2018-09-22T01:56:09.432Z,1013.69
2018-09-22T01:57:18.776Z,1013.68
2018-09-22T01:58:28.663Z,1013.71
2018-09-22T01:59:38.871Z,1013.67
2018-09-22T02:00:48.790Z,1013.75
2018-09-22T02:01:58.950Z,1013.74
2018-09-22T02:03:08.875Z,1013.76
2018-09-22T02:04:18.494Z,1013.78
2018-09-22T02:05:28.116Z,1013.84
2018-09-22T02:06:37.975Z,1013.84
2018-09-22T02:07:47.622Z,1013.9
2018-09-22T02:08:57.236Z,1013.92
2018-09-22T02:10:06.855Z,1013.98
2018-09-22T02:11:15.921Z,1013.89
2018-09-22T02:12:25.811Z,1013.93
2018-09-22T02:13:35.700Z,1013.97
2018-09-22T02:14:45.325Z,1014.01
2018-09-22T02:15:54.917Z,1013.95
2018-09-22T02:17:03.988Z,1013.96
2018-09-22T02:18:13.882Z,1014
2018-09-22T02:19:23.813Z,1014
2018-09-22T02:20:33.985Z,1013.98
2018-09-22T02:21:43.880Z,1013.99
2018-09-22T02:22:53.226Z,1013.98
2018-09-22T02:24:02.946Z,1013.95
2018-09-22T02:25:12.836Z,1014.05
2018-09-22T02:26:22.460Z,1014.03
2018-09-22T02:27:32.073Z,1014.06
2018-09-22T02:28:41.967Z,1014.01
2018-09-22T02:29:51.861Z,1014.01
2018-09-22T02:31:02.039Z,1014.12
2018-09-22T02:32:11.930Z,1014.01
2018-09-22T02:33:22.098Z,1014.02
2018-09-22T02:34:31.441Z,1014.06
2018-09-22T02:35:40.817Z,1014.09
2018-09-22T02:36:51.069Z,1014.09
2018-09-22T02:38:00.960Z,1014.12
2018-09-22T02:39:10.891Z,1014.18
2018-09-22T02:40:21.092Z,1014.26
2018-09-22T02:41:31.303Z,1014.21
2018-09-22T02:42:41.239Z,1014.26
2018-09-22T02:43:50.313Z,1014.22
2018-09-22T02:45:00.216Z,1014.19
2018-09-22T02:46:10.118Z,1014.25
2018-09-22T02:47:19.467Z,1014.26
2018-09-22T02:48:29.375Z,1014.31
2018-09-22T02:49:39.288Z,1014.36
2018-09-22T02:50:49.462Z,1014.28
2018-09-22T02:51:59.640Z,1014.38
2018-09-22T02:53:09.247Z,1014.37
2018-09-22T02:54:18.867Z,1014.34
2018-09-22T02:55:28.481Z,1014.4
2018-09-22T02:56:38.383Z,1014.39
2018-09-22T02:57:48.551Z,1014.41
2018-09-22T02:58:58.787Z,1014.41
2018-09-22T03:00:08.676Z,1014.36
2018-09-22T03:01:18.844Z,1014.45
2018-09-22T03:02:28.466Z,1014.47
2018-09-22T03:03:38.362Z,1014.53
2018-09-22T03:04:48.302Z,1014.53
2018-09-22T03:05:58.466Z,1014.52
2018-09-22T03:07:08.401Z,1014.56
2018-09-22T03:08:18.294Z,1014.54
2018-09-22T03:09:28.184Z,1014.55
2018-09-22T03:10:37.800Z,1014.6
2018-09-22T03:11:47.422Z,1014.65
2018-09-22T03:12:57.322Z,1014.66
2018-09-22T03:14:06.961Z,1014.73
2018-09-22T03:15:16.332Z,1014.71
2018-09-22T03:16:26.286Z,1014.7
2018-09-22T03:17:36.476Z,1014.76
2018-09-22T03:18:46.108Z,1014.76
2018-09-22T03:19:56.009Z,1014.72
2018-09-22T03:21:06.217Z,1014.8
2018-09-22T03:22:16.115Z,1014.76
2018-09-22T03:23:25.735Z,1014.76
2018-09-22T03:24:35.347Z,1014.74
2018-09-22T03:25:44.962Z,1014.85
2018-09-22T03:26:54.857Z,1014.83
2018-09-22T03:28:04.476Z,1014.85
2018-09-22T03:29:14.123Z,1014.91
2018-09-22T03:30:23.999Z,1014.85
2018-09-22T03:31:34.111Z,1014.87
2018-09-22T03:32:44.300Z,1014.92
2018-09-22T03:33:53.677Z,1014.91
2018-09-22T03:35:03.850Z,1014.88
2018-09-22T03:36:13.745Z,1014.96
2018-09-22T03:37:23.089Z,1014.97
2018-09-22T03:38:32.709Z,1014.96
2018-09-22T03:39:42.592Z,1014.98
2018-09-22T03:40:51.664Z,1015.02
2018-09-22T03:42:01.590Z,1014.97
2018-09-22T03:43:11.518Z,1015.02
2018-09-22T03:44:21.405Z,1014.99
2018-09-22T03:45:31.300Z,1014.95
2018-09-22T03:46:41.475Z,1014.97
2018-09-22T03:47:51.371Z,1015
2018-09-22T03:49:01.535Z,1015.02
2018-09-22T03:50:11.165Z,1015.07
2018-09-22T03:51:21.101Z,1015.08
2018-09-22T03:52:31.001Z,1015.12
2018-09-22T03:53:40.342Z,1015.08
2018-09-22T03:54:50.716Z,1015.08
2018-09-22T03:56:00.339Z,1015.12
2018-09-22T03:57:09.973Z,1015.05
2018-09-22T03:58:19.876Z,1015.04
2018-09-22T03:59:30.054Z,1015.09
2018-09-22T04:00:40.212Z,1015.14
2018-09-22T04:01:50.183Z,1015.1
2018-09-22T04:03:00.084Z,1015.19
2018-09-22T04:04:09.978Z,1015.22
2018-09-22T04:05:19.916Z,1015.23
2018-09-22T04:06:29.825Z,1015.24
2018-09-22T04:07:39.995Z,1015.21
2018-09-22T04:08:50.173Z,1015.25
2018-09-22T04:10:00.068Z,1015.25
2018-09-22T04:11:09.961Z,1015.28
2018-09-22T04:12:19.589Z,1015.25
2018-09-22T04:13:29.206Z,1015.29
2018-09-22T04:14:39.151Z,1015.27
2018-09-22T04:15:49.050Z,1015.23
2018-09-22T04:16:58.976Z,1015.26
2018-09-22T04:18:08.866Z,1015.32
2018-09-22T04:19:18.762Z,1015.33
2018-09-22T04:20:28.649Z,1015.31
2018-09-22T04:21:38.859Z,1015.36
2018-09-22T04:22:49.083Z,1015.45
2018-09-22T04:23:58.984Z,1015.41
2018-09-22T04:25:08.637Z,1015.37
2018-09-22T04:26:18.848Z,1015.27
2018-09-22T04:27:28.465Z,1015.35
2018-09-22T04:28:38.364Z,1015.35
2018-09-22T04:29:47.991Z,1015.36
2018-09-22T04:30:58.081Z,1015.34
2018-09-22T04:32:08.460Z,1015.42
2018-09-22T04:33:18.605Z,1015.42
2018-09-22T04:34:28.627Z,1015.43
2018-09-22T04:35:38.258Z,1015.46
2018-09-22T04:36:48.151Z,1015.5
2018-09-22T04:37:57.763Z,1015.53
2018-09-22T04:39:07.657Z,1015.49
2018-09-22T04:40:17.550Z,1015.49
2018-09-22T04:41:27.170Z,1015.57
2018-09-22T04:42:37.095Z,1015.6
2018-09-22T04:43:47.221Z,1015.57
2018-09-22T04:44:56.561Z,1015.52
2018-09-22T04:46:06.454Z,1015.52
2018-09-22T04:47:16.074Z,1015.52
2018-09-22T04:48:26.265Z,1015.5
2018-09-22T04:49:35.878Z,1015.45
2018-09-22T04:50:45.494Z,1015.53
2018-09-22T04:51:55.150Z,1015.53
2018-09-22T04:53:04.771Z,1015.61
2018-09-22T04:54:14.662Z,1015.63
2018-09-22T04:55:24.554Z,1015.65
2018-09-22T04:56:33.625Z,1015.65
2018-09-22T04:57:43.241Z,1015.63
2018-09-22T04:58:52.848Z,1015.62
2018-09-22T05:00:02.203Z,1015.64
2018-09-22T05:01:11.267Z,1015.66
2018-09-22T05:02:21.436Z,1015.66
2018-09-22T05:03:30.775Z,1015.66
2018-09-22T05:04:40.117Z,1015.68
2018-09-22T05:05:50.289Z,1015.67
2018-09-22T05:07:00.226Z,1015.75
2018-09-22T05:08:10.113Z,1015.68
2018-09-22T05:09:20.281Z,1015.71
2018-09-22T05:10:30.666Z,1015.74
2018-09-22T05:11:40.571Z,1015.76
2018-09-22T05:12:50.199Z,1015.76
2018-09-22T05:13:59.832Z,1015.8
2018-09-22T05:15:10.066Z,1015.9
2018-09-22T05:16:19.678Z,1015.88
2018-09-22T05:17:29.571Z,1015.83
2018-09-22T05:18:39.466Z,1015.91
2018-09-22T05:19:49.081Z,1015.93
2018-09-22T05:20:58.985Z,1015.94
2018-09-22T05:22:08.809Z,1015.95
2018-09-22T05:23:18.984Z,1015.96
2018-09-22T05:24:28.929Z,1016.01
2018-09-22T05:25:38.640Z,1016
2018-09-22T05:26:48.546Z,1016.07
2018-09-22T05:27:58.718Z,1016.04
2018-09-22T05:29:08.058Z,1016.02
2018-09-22T05:30:18.219Z,1016.04
2018-09-22T05:31:28.113Z,1016.1
2018-09-22T05:32:38.289Z,1016.06
2018-09-22T05:33:48.457Z,1016.11
2018-09-22T05:34:57.999Z,1016.08
2018-09-22T05:36:07.910Z,1016.09
2018-09-22T05:37:17.798Z,1016.07
2018-09-22T05:38:27.700Z,1016.13
2018-09-22T05:39:37.622Z,1016.15
2018-09-22T05:40:47.718Z,1016.22
2018-09-22T05:41:57.617Z,1016.23
2018-09-22T05:43:07.519Z,1016.26
2018-09-22T05:44:17.419Z,1016.26
2018-09-22T05:45:27.078Z,1016.3
2018-09-22T05:46:36.970Z,1016.28
2018-09-22T05:47:46.867Z,1016.29
2018-09-22T05:48:56.754Z,1016.33
2018-09-22T05:50:06.674Z,1016.37
2018-09-22T05:51:16.607Z,1016.32
2018-09-22T05:52:26.497Z,1016.29
2018-09-22T05:53:36.905Z,1016.4
2018-09-22T05:54:46.523Z,1016.36
2018-09-22T05:55:56.139Z,1016.39
2018-09-22T05:57:06.297Z,1016.37
2018-09-22T05:58:16.388Z,1016.34
2018-09-22T05:59:26.687Z,1016.39
2018-09-22T06:00:36.633Z,1016.31
2018-09-22T06:01:46.530Z,1016.35
2018-09-22T06:02:56.706Z,1016.34
2018-09-22T06:04:06.315Z,1016.37
2018-09-22T06:05:15.660Z,1016.36
2018-09-22T06:06:25.615Z,1016.34
2018-09-22T06:07:35.544Z,1016.39
2018-09-22T06:08:44.883Z,1016.43
2018-09-22T06:09:54.775Z,1016.43
2018-09-22T06:11:04.666Z,1016.42
2018-09-22T06:12:14.551Z,1016.51
2018-09-22T06:13:23.895Z,1016.55
2018-09-22T06:14:33.520Z,1016.59
2018-09-22T06:15:43.417Z,1016.54
2018-09-22T06:16:53.586Z,1016.48
2018-09-22T06:18:03.213Z,1016.52
2018-09-22T06:19:13.359Z,1016.56
2018-09-22T06:20:23.280Z,1016.53
2018-09-22T06:21:33.166Z,1016.49
2018-09-22T06:22:43.326Z,1016.56
2018-09-22T06:23:53.225Z,1016.5
2018-09-22T06:25:02.570Z,1016.56
2018-09-22T06:26:12.750Z,1016.61
2018-09-22T06:27:22.918Z,1016.58
2018-09-22T06:28:32.839Z,1016.58
2018-09-22T06:29:43.074Z,1016.61
2018-09-22T06:30:52.694Z,1016.63
2018-09-22T06:32:02.614Z,1016.61
2018-09-22T06:33:12.499Z,1016.55
2018-09-22T06:34:22.666Z,1016.6
2018-09-22T06:35:32.291Z,1016.6
2018-09-22T06:36:42.214Z,1016.51
2018-09-22T06:37:52.506Z,1016.55
2018-09-22T06:39:02.120Z,1016.58
2018-09-22T06:40:12.017Z,1016.6
2018-09-22T06:41:21.907Z,1016.6
2018-09-22T06:42:32.069Z,1016.61
2018-09-22T06:43:41.973Z,1016.61
2018-09-22T06:44:52.151Z,1016.65
2018-09-22T06:46:02.014Z,1016.68
2018-09-22T06:47:11.877Z,1016.65
2018-09-22T06:48:21.771Z,1016.68
2018-09-22T06:49:31.661Z,1016.66
2018-09-22T06:50:41.275Z,1016.68
2018-09-22T06:51:51.168Z,1016.69
2018-09-22T06:53:01.337Z,1016.6
2018-09-22T06:54:10.957Z,1016.65
2018-09-22T06:55:20.019Z,1016.59
2018-09-22T06:56:30.182Z,1016.58
2018-09-22T06:57:40.068Z,1016.62
2018-09-22T06:58:50.272Z,1016.6
2018-09-22T06:59:59.333Z,1016.69
2018-09-22T07:01:08.959Z,1016.67
2018-09-22T07:02:18.851Z,1016.64
2018-09-22T07:03:28.769Z,1016.71
2018-09-22T07:04:39.009Z,1016.67
2018-09-22T07:05:48.895Z,1016.66
2018-09-22T07:06:58.509Z,1016.69
2018-09-22T07:08:08.402Z,1016.73
2018-09-22T07:09:18.564Z,1016.69
2018-09-22T07:10:28.733Z,1016.73
2018-09-22T07:11:38.377Z,1016.77
2018-09-22T07:12:48.332Z,1016.76
2018-09-22T07:13:58.357Z,1016.74
2018-09-22T07:15:08.356Z,1016.81
2018-09-22T07:16:18.531Z,1016.82
2018-09-22T07:17:28.147Z,1016.83
2018-09-22T07:18:38.298Z,1016.84
2018-09-22T07:19:48.190Z,1016.87
2018-09-22T07:20:58.087Z,1016.91
2018-09-22T07:22:07.156Z,1016.93
2018-09-22T07:23:17.326Z,1016.89
2018-09-22T07:24:27.493Z,1016.9
2018-09-22T07:25:37.415Z,1016.88
2018-09-22T07:26:46.762Z,1016.92
2018-09-22T07:27:56.654Z,1016.9
2018-09-22T07:29:06.470Z,1016.9
2018-09-22T07:30:16.631Z,1016.9
2018-09-22T07:31:26.791Z,1016.82
2018-09-22T07:32:36.732Z,1016.88
2018-09-22T07:33:46.344Z,1016.91
2018-09-22T07:34:55.961Z,1016.86
2018-09-22T07:36:05.579Z,1016.79
2018-09-22T07:37:15.481Z,1016.81
2018-09-22T07:38:25.376Z,1016.82
2018-09-22T07:39:35.541Z,1016.78
2018-09-22T07:40:45.451Z,1016.82
2018-09-22T07:41:55.349Z,1016.88
2018-09-22T07:43:05.517Z,1016.85
2018-09-22T07:44:14.859Z,1016.86
2018-09-22T07:45:24.764Z,1016.85
2018-09-22T07:46:34.386Z,1016.9
2018-09-22T07:47:44.562Z,1016.9
2018-09-22T07:48:54.451Z,1016.92
2018-09-22T07:50:04.382Z,1017.07
2018-09-22T07:51:14.307Z,1016.95
2018-09-22T07:52:24.242Z,1016.94
2018-09-22T07:53:34.408Z,1016.97
2018-09-22T07:54:43.489Z,1016.97
2018-09-22T07:55:53.391Z,1016.97
2018-09-22T07:57:03.307Z,1016.95
2018-09-22T07:58:13.166Z,1016.95
2018-09-22T07:59:22.544Z,1017
2018-09-22T08:00:32.803Z,1016.98
2018-09-22T08:01:43.230Z,1016.94
2018-09-22T08:02:53.423Z,1017.03
2018-09-22T08:04:03.323Z,1017.05
2018-09-22T08:05:13.516Z,1017.05
2018-09-22T08:06:23.685Z,1017.12
2018-09-22T08:07:33.298Z,1017.13
2018-09-22T08:08:43.222Z,1017.03
2018-09-22T08:09:53.406Z,1017.04
2018-09-22T08:11:02.958Z,1017.09
2018-09-22T08:12:12.589Z,1017.05
2018-09-22T08:13:22.210Z,1017.03
2018-09-22T08:14:32.106Z,1017.11
2018-09-22T08:15:42.011Z,1017.14
2018-09-22T08:16:51.631Z,1017.2
2018-09-22T08:18:01.284Z,1017.24
2018-09-22T08:19:11.489Z,1017.2
2018-09-22T08:20:20.840Z,1017.21
2018-09-22T08:21:31.003Z,1017.24
2018-09-22T08:22:40.903Z,1017.13
2018-09-22T08:23:50.535Z,1017.16
2018-09-22T08:25:00.448Z,1017.11
2018-09-22T08:26:10.222Z,1017.12
2018-09-22T08:27:19.847Z,1017.04
2018-09-22T08:28:30.014Z,1017.16
2018-09-22T08:29:39.919Z,1017.24
2018-09-22T08:30:49.545Z,1017.3
2018-09-22T08:31:59.212Z,1017.25
2018-09-22T08:33:09.848Z,1017.28
2018-09-22T08:34:19.465Z,1017.22
2018-09-22T08:35:29.352Z,1017.23
2018-09-22T08:36:39.726Z,1017.2
2018-09-22T08:37:50.529Z,1017.1
2018-09-22T08:39:00.147Z,1017.27
2018-09-22T08:40:09.798Z,1017.25
2018-09-22T08:41:19.693Z,1017.22
2018-09-22T08:42:29.353Z,1017.24
2018-09-22T08:43:38.969Z,1017.29
2018-09-22T08:44:48.692Z,1017.26
2018-09-22T08:45:59.184Z,1017.19
2018-09-22T08:47:09.075Z,1017.27
2018-09-22T08:48:18.992Z,1017.2
2018-09-22T08:49:29.191Z,1017.26
2018-09-22T08:50:39.089Z,1017.2
2018-09-22T08:51:49.272Z,1017.33
2018-09-22T08:52:59.473Z,1017.35
2018-09-22T08:54:09.086Z,1017.35
2018-09-22T08:55:18.432Z,1017.31
2018-09-22T08:56:28.610Z,1017.35
2018-09-22T08:57:38.226Z,1017.52
2018-09-22T08:58:47.950Z,1017.46
2018-09-22T08:59:58.120Z,1017.44
2018-09-22T09:01:08.031Z,1017.4
2018-09-22T09:02:18.188Z,1017.48
2018-09-22T09:03:28.352Z,1017.37
2018-09-22T09:04:38.249Z,1017.43
2018-09-22T09:05:48.248Z,1017.33
2018-09-22T09:06:58.431Z,1017.33
2018-09-22T09:08:08.589Z,1017.37
2018-09-22T09:09:18.210Z,1017.39
2018-09-22T09:10:27.840Z,1017.33
2018-09-22T09:11:37.998Z,1017.3
2018-09-22T09:12:47.890Z,1017.42
2018-09-22T09:13:57.518Z,1017.35
2018-09-22T09:15:07.533Z,1017.41
2018-09-22T09:16:17.083Z,1017.35
2018-09-22T09:17:27.027Z,1017.43
2018-09-22T09:18:36.931Z,1017.41
2018-09-22T09:19:47.104Z,1017.35
2018-09-22T09:20:56.727Z,1017.41
2018-09-22T09:22:06.345Z,1017.4
2018-09-22T09:23:16.517Z,1017.34
2018-09-22T09:24:26.439Z,1017.38
2018-09-22T09:25:36.335Z,1017.38
2018-09-22T09:26:46.506Z,1017.42
2018-09-22T09:27:56.392Z,1017.38
2018-09-22T09:29:05.738Z,1017.36
2018-09-22T09:30:15.634Z,1017.33
2018-09-22T09:31:25.584Z,1017.37
2018-09-22T09:32:34.930Z,1017.38
2018-09-22T09:33:44.559Z,1017.34
2018-09-22T09:34:54.456Z,1017.36
2018-09-22T09:36:03.896Z,1017.39
2018-09-22T09:37:13.820Z,1017.35
2018-09-22T09:38:23.720Z,1017.25
2018-09-22T09:39:33.384Z,1017.25
2018-09-22T09:40:43.624Z,1017.29
2018-09-22T09:41:53.245Z,1017.33
2018-09-22T09:43:02.864Z,1017.3
2018-09-22T09:44:13.047Z,1017.3
2018-09-22T09:45:22.672Z,1017.3
2018-09-22T09:46:32.566Z,1017.25
2018-09-22T09:47:41.919Z,1017.38
2018-09-22T09:48:51.552Z,1017.31
2018-09-22T09:50:01.453Z,1017.38
2018-09-22T09:51:11.353Z,1017.24
2018-09-22T09:52:21.532Z,1017.28
2018-09-22T09:53:31.487Z,1017.19
2018-09-22T09:54:41.147Z,1017.3
2018-09-22T09:55:51.631Z,1017.17
2018-09-22T09:57:01.525Z,1017.37
2018-09-22T09:58:11.418Z,1017.27
2018-09-22T09:59:21.314Z,1017.27
2018-09-22T10:00:31.454Z,1017.27
2018-09-22T10:01:41.707Z,1017.26
2018-09-22T10:02:51.330Z,1017.2
2018-09-22T10:04:00.947Z,1017.28
2018-09-22T10:05:10.568Z,1017.24
2018-09-22T10:06:20.218Z,1017.25
2018-09-22T10:07:30.111Z,1017.21
2018-09-22T10:08:40.278Z,1017.25
2018-09-22T10:09:50.214Z,1017.31
2018-09-22T10:11:00.162Z,1017.27
2018-09-22T10:12:10.091Z,1017.17
2018-09-22T10:13:20.259Z,1017.18
2018-09-22T10:14:29.874Z,1017.17
2018-09-22T10:15:39.771Z,1017.17
2018-09-22T10:16:49.399Z,1017.15
2018-09-22T10:17:59.022Z,1017.18
2018-09-22T10:19:08.637Z,1017.32
2018-09-22T10:20:18.567Z,1017.21
2018-09-22T10:21:28.939Z,1017.23
2018-09-22T10:22:38.833Z,1017.15
2018-09-22T10:23:48.726Z,1017.19
2018-09-22T10:24:58.622Z,1017.25
2018-09-22T10:26:07.697Z,1017.26
2018-09-22T10:27:17.859Z,1017.24
2018-09-22T10:28:27.601Z,1017.27
2018-09-22T10:29:38.082Z,1017.28
2018-09-22T10:30:47.355Z,1017.18
2018-09-22T10:31:56.972Z,1017.11
2018-09-22T10:33:07.138Z,1017.07
2018-09-22T10:34:16.846Z,1017.08
2018-09-22T10:35:26.464Z,1017.06
2018-09-22T10:36:36.355Z,1017.03
2018-09-22T10:37:45.424Z,1016.97
2018-09-22T10:38:55.039Z,1017.03
2018-09-22T10:40:04.928Z,1017.06
2018-09-22T10:41:15.093Z,1017.06
2018-09-22T10:42:24.981Z,1017.08
2018-09-22T10:43:34.884Z,1017
2018-09-22T10:44:44.813Z,1017.03
2018-09-22T10:45:54.812Z,1017.06
2018-09-22T10:47:04.437Z,1017.05
2018-09-22T10:48:14.331Z,1017.08
2018-09-22T10:49:24.258Z,1017.11
2018-09-22T10:50:33.606Z,1017.11
2018-09-22T10:51:43.834Z,1017.08
2018-09-22T10:52:53.500Z,1017.14
2018-09-22T10:54:03.503Z,1017.09
2018-09-22T10:55:13.742Z,1017.12
2018-09-22T10:56:23.668Z,1017.04
2018-09-22T10:57:33.904Z,1017.18
2018-09-22T10:58:43.526Z,1017.07
2018-09-22T10:59:53.414Z,1017.03
2018-09-22T11:01:03.047Z,1017.1
2018-09-22T11:02:12.935Z,1017.01
2018-09-22T11:03:22.586Z,1017
2018-09-22T11:04:32.723Z,1017.04
2018-09-22T11:05:42.583Z,1017.02
2018-09-22T11:06:52.751Z,1017.07
2018-09-22T11:08:02.370Z,1017.06
2018-09-22T11:09:12.264Z,1017
2018-09-22T11:10:21.891Z,1016.92
2018-09-22T11:11:31.788Z,1017.09
2018-09-22T11:12:41.428Z,1017
2018-09-22T11:13:51.594Z,1016.99
2018-09-22T11:15:01.819Z,1016.94
2018-09-22T11:16:12.005Z,1017
2018-09-22T11:17:21.618Z,1016.97
2018-09-22T11:18:31.568Z,1017
2018-09-22T11:19:41.189Z,1016.96
2018-09-22T11:20:51.081Z,1017.06
2018-09-22T11:22:00.701Z,1016.89
2018-09-22T11:23:10.600Z,1016.99
2018-09-22T11:24:20.226Z,1016.96
2018-09-22T11:25:30.395Z,1016.99
2018-09-22T11:26:39.740Z,1017.11
2018-09-22T11:27:49.783Z,1017.11
2018-09-22T11:28:59.678Z,1017.2
2018-09-22T11:30:09.421Z,1017.16
2018-09-22T11:31:19.398Z,1017.22
2018-09-22T11:32:29.644Z,1017.16
2018-09-22T11:33:39.716Z,1017.27
2018-09-22T11:34:48.791Z,1017.41
2018-09-22T11:35:59.201Z,1017.25
2018-09-22T11:37:09.107Z,1017.2
2018-09-22T11:38:19.131Z,1017.02
2018-09-22T11:39:29.449Z,1017.2
2018-09-22T11:40:39.069Z,1016.95
2018-09-22T11:41:48.730Z,1016.96
2018-09-22T11:42:58.623Z,1017.07
2018-09-22T11:44:08.522Z,1017.12
2018-09-22T11:45:18.504Z,1017.01
2018-09-22T11:46:28.126Z,1017
2018-09-22T11:47:38.001Z,1017.02
2018-09-22T11:48:47.908Z,1016.92
2018-09-22T11:49:57.260Z,1017
2018-09-22T11:51:07.149Z,1017.1
2018-09-22T11:52:17.048Z,1017.17
2018-09-22T11:53:26.415Z,1017.17
2018-09-22T11:54:36.304Z,1017.13
2018-09-22T11:55:46.255Z,1017.02
2018-09-22T11:56:56.165Z,1016.91
2018-09-22T11:58:06.058Z,1016.78
2018-09-22T11:59:15.399Z,1016.83
2018-09-22T12:00:25.296Z,1016.95
2018-09-22T12:01:34.650Z,1017.03
2018-09-22T12:02:44.279Z,1017
2018-09-22T12:03:54.487Z,1016.96
2018-09-22T12:05:04.392Z,1016.91
2018-09-22T12:06:14.615Z,1016.99
2018-09-22T12:07:25.272Z,1017.02
2018-09-22T12:08:34.889Z,1016.99
2018-09-22T12:09:44.511Z,1017.17
2018-09-22T12:10:54.129Z,1017.07
2018-09-22T12:12:04.047Z,1017.06
2018-09-22T12:13:13.972Z,1017.05
2018-09-22T12:14:23.874Z,1017.03
2018-09-22T12:15:33.799Z,1017.06
2018-09-22T12:16:43.163Z,1017.1
2018-09-22T12:17:53.341Z,1017.06
2018-09-22T12:19:02.971Z,1017.17
2018-09-22T12:20:13.174Z,1017.22
2018-09-22T12:21:22.920Z,1017.14
2018-09-22T12:22:33.043Z,1017.12
2018-09-22T12:23:42.947Z,1017.05
2018-09-22T12:24:52.560Z,1017.1
2018-09-22T12:26:02.462Z,1017.13
2018-09-22T12:27:11.812Z,1017.1
2018-09-22T12:28:21.969Z,1017.13
2018-09-22T12:29:31.627Z,1017.21
2018-09-22T12:30:41.521Z,1017.14
2018-09-22T12:31:51.707Z,1017.02
2018-09-22T12:33:02.046Z,1017.02
2018-09-22T12:34:11.975Z,1016.97
2018-09-22T12:35:21.875Z,1016.96
2018-09-22T12:36:31.497Z,1016.85
2018-09-22T12:37:41.391Z,1016.89
2018-09-22T12:38:51.611Z,1016.9
2018-09-22T12:40:01.234Z,1016.94
2018-09-22T12:41:10.583Z,1017.01
2018-09-22T12:42:20.510Z,1017.04
2018-09-22T12:43:30.648Z,1017.09
2018-09-22T12:44:39.995Z,1017.11
2018-09-22T12:45:49.897Z,1017.09
2018-09-22T12:47:00.247Z,1017.03
2018-09-22T12:48:09.908Z,1017.09
2018-09-22T12:49:19.803Z,1017.06
2018-09-22T12:50:29.429Z,1016.91
2018-09-22T12:51:39.097Z,1016.94
2018-09-22T12:52:48.990Z,1016.92
2018-09-22T12:53:58.614Z,1016.96
2018-09-22T12:55:08.478Z,1016.99
2018-09-22T12:56:18.375Z,1016.98
2018-09-22T12:57:27.449Z,1017.03
2018-09-22T12:58:37.068Z,1017.05
2018-09-22T12:59:46.961Z,1016.99
2018-09-22T13:00:56.850Z,1016.92
2018-09-22T13:02:06.474Z,1016.96
2018-09-22T13:03:16.369Z,1017.02
2018-09-22T13:04:25.982Z,1017.02
2018-09-22T13:05:35.648Z,1017.02
2018-09-22T13:06:45.831Z,1017.03
2018-09-22T13:07:56.047Z,1017.01
2018-09-22T13:09:05.690Z,1017.03
2018-09-22T13:10:15.592Z,1016.93
2018-09-22T13:11:25.766Z,1016.92
2018-09-22T13:12:35.387Z,1016.97
2018-09-22T13:13:44.727Z,1016.97
2018-09-22T13:14:54.351Z,1017.01
2018-09-22T13:16:03.964Z,1016.94
2018-09-22T13:17:13.902Z,1017.02
2018-09-22T13:18:23.533Z,1017.01
2018-09-22T13:19:33.722Z,1016.97
2018-09-22T13:20:43.377Z,1016.97
2018-09-22T13:21:53.003Z,1016.98
2018-09-22T13:23:02.635Z,1017
2018-09-22T13:24:12.544Z,1016.98
2018-09-22T13:25:22.710Z,1016.96
2018-09-22T13:26:32.876Z,1017.01
2018-09-22T13:27:43.112Z,1016.96
2018-09-22T13:28:53.042Z,1016.97
2018-09-22T13:30:03.215Z,1016.94
2018-09-22T13:31:13.106Z,1016.94
2018-09-22T13:32:22.490Z,1016.96
2018-09-22T13:33:32.659Z,1016.96
2018-09-22T13:34:42.755Z,1016.92
2018-09-22T13:35:52.377Z,1016.92
2018-09-22T13:37:02.308Z,1016.9
2018-09-22T13:38:12.813Z,1016.94
2018-09-22T13:39:23.024Z,1016.91
2018-09-22T13:40:32.911Z,1016.94
2018-09-22T13:41:41.978Z,1016.95
2018-09-22T13:42:51.379Z,1016.95
2018-09-22T13:44:01.294Z,1016.97
2018-09-22T13:45:11.469Z,1016.94
2018-09-22T13:46:21.092Z,1016.96
2018-09-22T13:47:30.717Z,1016.88
2018-09-22T13:48:40.644Z,1016.87
2018-09-22T13:49:50.297Z,1016.87
2018-09-22T13:51:00.158Z,1016.85
2018-09-22T13:52:10.339Z,1016.91
2018-09-22T13:53:20.225Z,1016.9
2018-09-22T13:54:29.599Z,1017.01
2018-09-22T13:55:39.230Z,1017
2018-09-22T13:56:49.131Z,1016.92
2018-09-22T13:57:59.066Z,1016.85
2018-09-22T13:59:09.231Z,1016.9
2018-09-22T14:00:18.853Z,1016.93
2018-09-22T14:01:28.199Z,1017.01
2018-09-22T14:02:38.096Z,1016.94
2018-09-22T14:03:48.046Z,1016.95
2018-09-22T14:04:58.419Z,1016.99
2018-09-22T14:06:08.054Z,1016.98
2018-09-22T14:07:17.951Z,1016.97
2018-09-22T14:08:27.590Z,1017.02
2018-09-22T14:09:37.776Z,1017.12